Time;durP1;ratioP1;P1;durP2;ratioP2;P2;SDS_P1;SDS_P2;PMS_P1;PMS_P2;Temp;Humidity;BMP_temperature;BMP_pressure;BME280_temperature;BME280_humidity;BME280_pressure;Samples;Min_cycle;Max_cycle;Signal;HPM_P1;HPM_P2
2022/07/22 00:01:32;;;;;;;22.77;20.37;;;;;;;19.27;91.84;100592.09;5103172;27;20478;-64
2022/07/22 00:03:59;;;;;;;22.87;20.50;;;;;;;19.32;91.82;100605.06;5103710;28;20470;-65
2022/07/22 00:06:27;;;;;;;21.67;19.47;;;;;;;19.42;91.27;100600.19;5102875;27;20475;-65
2022/07/22 00:08:54;;;;;;;20.13;17.80;;;;;;;19.54;90.16;100606.78;5103526;28;20439;-66
2022/07/22 00:11:20;;;;;;;22.30;19.13;;;;;;;19.49;90.38;100608.41;5102591;28;20473;-66
2022/07/22 00:13:47;;;;;;;17.27;15.57;;;;;;;19.36;90.07;100596.38;5102855;28;20479;-66
2022/07/22 00:16:15;;;;;;;18.00;16.10;;;;;;;19.43;89.66;100610.00;5102758;27;20585;-66
2022/07/22 00:18:42;;;;;;;16.87;15.17;;;;;;;19.33;89.89;100610.28;5103242;28;21190;-66
2022/07/22 00:21:09;;;;;;;19.30;14.50;;;;;;;19.17;89.59;100613.22;5102179;27;20475;-65
2022/07/22 00:23:35;;;;;;;12.40;10.83;;;;;;;18.97;89.70;100618.34;5103594;28;20492;-66
2022/07/22 00:26:02;;;;;;;10.87;9.77;;;;;;;18.74;89.77;100619.25;5102593;27;20478;-65
2022/07/22 00:28:29;;;;;;;10.10;8.43;;;;;;;18.51;89.88;100623.88;5102599;28;20947;-65
2022/07/22 00:30:56;;;;;;;9.70;8.70;;;;;;;18.49;89.75;100624.06;5101921;28;20470;-65
2022/07/22 00:33:24;;;;;;;8.73;7.63;;;;;;;18.50;89.76;100630.31;5103235;28;20431;-65
2022/07/22 00:35:51;;;;;;;9.37;7.30;;;;;;;18.58;89.13;100625.66;5102010;27;20482;-65
2022/07/22 00:38:17;;;;;;;8.20;6.37;;;;;;;18.54;88.96;100626.19;5102768;28;20473;-65
2022/07/22 00:40:44;;;;;;;8.03;6.87;;;;;;;18.57;88.65;100626.69;5102480;28;20475;-65
2022/07/22 00:43:11;;;;;;;7.60;6.27;;;;;;;18.50;88.71;100627.59;5102200;28;20454;-65
2022/07/22 00:45:38;;;;;;;6.87;6.27;;;;;;;18.42;88.92;100633.94;5102054;28;20463;-65
2022/07/22 00:48:05;;;;;;;7.33;6.10;;;;;;;18.52;88.29;100634.53;5101576;28;20443;-65
2022/07/22 00:50:33;;;;;;;6.93;5.40;;;;;;;18.47;87.92;100634.25;5102237;28;20486;-65
2022/07/22 00:52:59;;;;;;;6.43;5.80;;;;;;;18.63;87.57;100639.50;5102859;28;20443;-65
2022/07/22 00:55:26;;;;;;;6.97;6.23;;;;;;;18.57;87.59;100625.84;5101923;28;20499;-65
2022/07/22 00:57:53;;;;;;;5.70;4.90;;;;;;;18.63;87.54;100636.78;5101941;28;20469;-65
2022/07/22 01:00:21;;;;;;;7.50;6.60;;;;;;;18.47;88.48;100636.94;5102923;27;20460;-65
2022/07/22 01:02:48;;;;;;;7.83;5.80;;;;;;;18.47;88.24;100642.38;5102572;28;20455;-65
2022/07/22 01:05:15;;;;;;;8.00;6.57;;;;;;;18.54;88.47;100640.59;5102113;28;20486;-65
2022/07/22 01:07:43;;;;;;;7.00;6.30;;;;;;;18.43;87.89;100647.28;5102747;28;20485;-65
2022/07/22 01:10:10;;;;;;;5.87;5.37;;;;;;;18.39;87.70;100648.69;5101906;28;21038;-65
2022/07/22 01:12:37;;;;;;;13.03;6.47;;;;;;;18.19;88.37;100651.06;5101875;28;20470;-65
2022/07/22 01:15:04;;;;;;;7.70;6.20;;;;;;;18.26;87.98;100648.44;5102527;28;20436;-66
2022/07/22 01:17:31;;;;;;;12.53;7.00;;;;;;;18.25;87.56;100649.47;5101247;28;20508;-65
2022/07/22 01:20:02;;;;;;;6.13;5.53;;;;;;;18.27;87.32;100652.84;5102339;28;20424;-65
2022/07/22 01:22:28;;;;;;;7.53;6.33;;;;;;;18.29;87.06;100652.66;5101703;28;21005;-65
2022/07/22 01:24:55;;;;;;;7.77;6.47;;;;;;;18.15;88.07;100651.59;5101780;28;20469;-65
2022/07/22 01:27:22;;;;;;;6.83;6.13;;;;;;;18.16;87.33;100648.69;5100636;27;20474;-65
2022/07/22 01:29:48;;;;;;;7.20;6.50;;;;;;;18.12;86.86;100650.06;5102131;28;20427;-65
2022/07/22 01:32:15;;;;;;;7.83;6.30;;;;;;;18.16;86.73;100658.69;5101584;27;20506;-65
2022/07/22 01:34:43;;;;;;;10.90;5.73;;;;;;;18.26;85.98;100648.44;5101749;28;20493;-65
2022/07/22 01:37:11;;;;;;;8.60;6.60;;;;;;;17.90;87.63;100667.13;5100865;27;20479;-65
2022/07/22 01:39:38;;;;;;;7.50;6.40;;;;;;;18.12;87.26;100650.06;5102233;28;20431;-65
2022/07/22 01:42:05;;;;;;;9.27;6.30;;;;;;;17.91;88.09;100660.69;5100341;27;20483;-65
2022/07/22 01:44:31;;;;;;;9.60;6.30;;;;;;;18.04;87.38;100667.22;5101695;28;20435;-65
2022/07/22 01:46:58;;;;;;;5.57;5.07;;;;;;;18.09;86.90;100663.97;5100108;28;20483;-65
2022/07/22 01:49:25;;;;;;;6.70;5.97;;;;;;;17.94;86.62;100672.00;5101265;28;20443;-65
2022/07/22 01:51:52;;;;;;;5.80;5.23;;;;;;;18.03;87.11;100670.94;5101237;27;20494;-65
2022/07/22 01:54:20;;;;;;;6.83;5.70;;;;;;;18.04;86.75;100666.38;5101284;28;20461;-65
2022/07/22 01:56:46;;;;;;;5.97;5.40;;;;;;;18.18;86.32;100672.88;5100342;28;20495;-65
2022/07/22 01:59:13;;;;;;;6.60;5.37;;;;;;;17.94;86.33;100668.47;5100712;28;20594;-66
2022/07/22 02:01:40;;;;;;;12.50;6.23;;;;;;;18.04;86.52;100680.75;5101104;27;20500;-65
2022/07/22 02:04:06;;;;;;;7.10;5.70;;;;;;;18.00;86.65;100676.72;5101340;28;20435;-65
2022/07/22 02:06:33;;;;;;;6.50;5.47;;;;;;;18.01;87.17;100667.56;5101119;27;20483;-65
2022/07/22 02:09:00;;;;;;;6.80;5.77;;;;;;;17.95;86.97;100676.41;5101850;28;20443;-65
2022/07/22 02:11:28;;;;;;;6.27;5.33;;;;;;;17.79;88.09;100676.47;5101058;28;20474;-65
2022/07/22 02:13:54;;;;;;;7.90;7.20;;;;;;;17.77;87.91;100676.63;5101479;28;20581;-66
2022/07/22 02:16:21;;;;;;;6.13;5.53;;;;;;;17.83;87.99;100686.75;5100550;27;20886;-65
2022/07/22 02:18:48;;;;;;;7.77;6.20;;;;;;;17.74;87.74;100678.84;5100932;28;20481;-65
2022/07/22 02:21:15;;;;;;;6.47;5.40;;;;;;;18.03;87.28;100680.91;5101032;27;20479;-65
2022/07/22 02:23:41;;;;;;;8.73;6.37;;;;;;;17.98;86.63;100681.44;5101552;28;20924;-66
2022/07/22 02:26:08;;;;;;;7.97;6.10;;;;;;;17.89;86.64;100685.22;5100677;27;20523;-65
2022/07/22 02:28:36;;;;;;;7.30;5.70;;;;;;;18.00;85.97;100681.25;5100760;28;20557;-66
2022/07/22 02:31:03;;;;;;;8.40;7.60;;;;;;;17.93;85.38;100685.72;5099983;27;20953;-65
2022/07/22 02:33:30;;;;;;;9.27;6.90;;;;;;;17.81;85.42;100683.38;5101190;28;20455;-66
2022/07/22 02:35:57;;;;;;;7.80;6.70;;;;;;;17.71;86.08;100685.47;5100193;27;20547;-65
2022/07/22 02:38:23;;;;;;;7.20;6.50;;;;;;;17.72;86.25;100687.13;5100259;28;20447;-65
2022/07/22 02:40:50;;;;;;;11.13;6.07;;;;;;;17.84;85.00;100685.72;5099910;27;20478;-65
2022/07/22 02:43:17;;;;;;;7.87;5.60;;;;;;;17.96;84.54;100691.59;5100192;28;20455;-65
2022/07/22 02:45:45;;;;;;;7.13;5.87;;;;;;;17.82;84.56;100692.34;5100125;27;20530;-65
2022/07/22 02:48:12;;;;;;;9.90;5.50;;;;;;;17.87;85.18;100688.09;5100186;28;20482;-65
2022/07/22 02:50:38;;;;;;;7.13;5.40;;;;;;;17.75;84.71;100689.50;5100084;27;20466;-65
2022/07/22 02:53:05;;;;;;;5.83;4.63;;;;;;;17.82;84.06;100685.06;5100691;28;20434;-65
2022/07/22 02:55:32;;;;;;;5.47;4.07;;;;;;;17.56;83.88;100679.94;5100045;28;20569;-65
2022/07/22 02:58:05;;;;;;;6.37;4.40;;;;;;;17.54;84.06;100692.81;5099440;28;20462;-65
2022/07/22 03:00:32;;;;;;;6.93;3.77;;;;;;;17.48;84.43;100688.94;5099925;27;20491;-65
2022/07/22 03:03:00;;;;;;;6.67;3.50;;;;;;;17.45;84.04;100691.16;5100267;28;20466;-66
2022/07/22 03:05:26;;;;;;;3.93;3.13;;;;;;;17.40;84.54;100693.53;5099372;27;20474;-65
2022/07/22 03:07:53;;;;;;;4.90;3.60;;;;;;;17.32;84.96;100699.78;5100054;28;20447;-65
2022/07/22 03:10:20;;;;;;;4.47;3.70;;;;;;;17.29;85.37;100701.00;5098726;28;20896;-65
2022/07/22 03:12:46;;;;;;;8.23;3.73;;;;;;;17.57;83.95;100705.13;5099352;28;20447;-65
2022/07/22 03:15:13;;;;;;;4.50;3.30;;;;;;;17.35;83.83;100699.47;5099672;27;20430;-65
2022/07/22 03:17:40;;;;;;;6.83;3.10;;;;;;;17.57;83.40;100703.28;5099615;28;20497;-65
2022/07/22 03:20:10;;;;;;;7.50;3.10;;;;;;;17.65;83.07;100707.78;5099680;27;20443;-64
2022/07/22 03:22:37;;;;;;;6.17;2.80;;;;;;;17.63;83.38;100705.25;5099938;28;20457;-65
2022/07/22 03:25:04;;;;;;;4.73;3.73;;;;;;;17.63;82.61;100710.66;5099916;28;20480;-65
2022/07/22 03:27:31;;;;;;;5.87;3.17;;;;;;;17.62;83.45;100710.84;5098488;28;20482;-65
2022/07/22 03:29:58;;;;;;;4.40;3.03;;;;;;;17.63;82.80;100715.25;5100188;28;20428;-65
2022/07/22 03:32:24;;;;;;;7.67;3.20;;;;;;;17.50;83.20;100713.94;5099481;27;20506;-65
2022/07/22 03:34:52;;;;;;;5.10;3.03;;;;;;;17.53;83.33;100710.03;5100655;28;20502;-65
2022/07/22 03:37:20;;;;;;;4.70;2.77;;;;;;;17.28;83.87;100715.53;5098889;27;20490;-65
2022/07/22 03:39:46;;;;;;;7.47;2.73;;;;;;;17.41;83.92;100708.72;5100062;28;20443;-65
2022/07/22 03:42:13;;;;;;;3.33;2.57;;;;;;;17.47;83.94;100716.97;5098841;27;20526;-65
2022/07/22 03:44:40;;;;;;;10.43;3.00;;;;;;;17.33;84.22;100711.47;5100396;28;20442;-65
2022/07/22 03:47:06;;;;;;;9.43;3.50;;;;;;;17.53;83.63;100707.31;5098474;27;20482;-65
2022/07/22 03:49:33;;;;;;;6.20;2.93;;;;;;;17.67;82.70;100708.44;5099878;28;21033;-65
2022/07/22 03:52:00;;;;;;;5.83;2.80;;;;;;;17.35;83.41;100706.72;5099659;28;21268;-66
2022/07/22 03:54:28;;;;;;;4.50;3.20;;;;;;;17.51;83.18;100706.66;5099641;28;21088;-65
2022/07/22 03:56:54;;;;;;;5.30;3.10;;;;;;;17.51;82.47;100712.06;5098776;28;20882;-65
2022/07/22 03:59:21;;;;;;;6.33;3.60;;;;;;;17.37;83.60;100723.63;5099609;28;20455;-65
2022/07/22 04:01:47;;;;;;;4.87;2.97;;;;;;;17.30;83.54;100721.59;5099366;28;20609;-65
2022/07/22 04:04:14;;;;;;;4.23;3.17;;;;;;;17.23;83.83;100712.50;5099319;28;20427;-65
2022/07/22 04:06:41;;;;;;;6.40;3.20;;;;;;;17.43;83.89;100718.34;5099081;27;20482;-65
2022/07/22 04:09:07;;;;;;;9.17;2.80;;;;;;;17.54;83.95;100711.72;5099752;28;20939;-65
2022/07/22 04:11:36;;;;;;;3.27;2.97;;;;;;;17.67;83.66;100720.13;5099068;28;20475;-65
2022/07/22 04:14:02;;;;;;;5.60;3.00;;;;;;;17.76;82.58;100723.63;5099420;28;20493;-64
2022/07/22 04:16:29;;;;;;;5.40;2.80;;;;;;;17.54;82.49;100717.13;5098058;28;20467;-65
2022/07/22 04:18:56;;;;;;;5.03;3.40;;;;;;;17.73;81.43;100717.75;5099451;28;20512;-65
2022/07/22 04:21:23;;;;;;;5.87;3.60;;;;;;;17.65;82.64;100721.31;5099481;27;20533;-65
2022/07/22 04:23:50;;;;;;;6.53;3.30;;;;;;;17.65;81.79;100727.59;5103297;28;20431;-65
2022/07/22 04:26:16;;;;;;;5.00;3.30;;;;;;;17.58;81.80;100726.56;5102860;27;20489;-64
2022/07/22 04:28:44;;;;;;;6.57;3.20;;;;;;;17.57;81.49;100722.19;5102961;28;20529;-65
2022/07/22 04:31:11;;;;;;;8.10;3.30;;;;;;;17.62;81.41;100727.94;5102787;28;20479;-65
2022/07/22 04:33:38;;;;;;;5.37;3.83;;;;;;;17.40;82.04;100734.91;5103349;28;20510;-65
2022/07/22 04:36:05;;;;;;;6.00;3.80;;;;;;;17.57;81.70;100730.31;5101937;27;20535;-65
2022/07/22 04:38:32;;;;;;;5.03;3.47;;;;;;;17.59;81.10;100736.38;5102700;28;20904;-65
2022/07/22 04:40:59;;;;;;;5.13;3.70;;;;;;;17.52;81.45;100731.84;5102128;27;20475;-64
2022/07/22 04:43:25;;;;;;;4.57;3.80;;;;;;;17.60;81.68;100734.50;5102057;28;20967;-64
2022/07/22 04:45:53;;;;;;;8.53;3.73;;;;;;;17.66;81.40;100733.81;5101951;28;20519;-65
2022/07/22 04:48:20;;;;;;;5.17;3.50;;;;;;;17.54;81.48;100730.66;5102350;28;20497;-66
2022/07/22 04:50:47;;;;;;;4.60;3.57;;;;;;;17.62;81.25;100729.75;5102349;28;20564;-65
2022/07/22 04:53:14;;;;;;;7.50;3.30;;;;;;;17.66;81.06;100734.66;5102399;28;20431;-65
2022/07/22 04:55:40;;;;;;;11.13;3.70;;;;;;;17.59;81.27;100736.38;5101711;27;20458;-65
2022/07/22 04:58:07;;;;;;;7.30;3.67;;;;;;;17.58;81.06;100731.97;5101855;28;20477;-65
2022/07/22 05:00:34;;;;;;;4.73;3.30;;;;;;;17.72;80.86;100732.28;5102228;27;20473;-65
2022/07/22 05:03:02;;;;;;;5.20;3.27;;;;;;;17.71;80.85;100728.72;5102379;28;20447;-65
2022/07/22 05:05:29;;;;;;;5.87;3.93;;;;;;;17.77;80.44;100733.41;5101782;28;20459;-65
2022/07/22 05:07:56;;;;;;;5.57;3.50;;;;;;;17.49;81.42;100727.63;5102219;28;20502;-65
2022/07/22 05:10:22;;;;;;;4.67;3.60;;;;;;;17.78;81.07;100737.00;5101760;28;20526;-65
2022/07/22 05:12:49;;;;;;;3.70;3.17;;;;;;;17.83;80.08;100726.50;5101834;28;20454;-65
2022/07/22 05:15:16;;;;;;;3.70;3.30;;;;;;;17.83;80.00;100731.91;5101977;27;20435;-65
2022/07/22 05:17:42;;;;;;;4.90;3.63;;;;;;;17.79;79.89;100730.53;5101452;28;20427;-65
2022/07/22 05:20:11;;;;;;;5.70;3.57;;;;;;;17.80;80.04;100729.53;5102000;27;20459;-64
2022/07/22 05:22:38;;;;;;;8.20;3.70;;;;;;;17.62;81.09;100729.75;5101844;28;20447;-65
2022/07/22 05:25:05;;;;;;;5.50;4.10;;;;;;;17.60;81.40;100734.50;5102508;28;20705;-65
2022/07/22 05:27:32;;;;;;;5.77;3.50;;;;;;;17.46;80.85;100733.38;5101159;28;20483;-65
2022/07/22 05:29:59;;;;;;;5.20;3.90;;;;;;;17.60;81.10;100732.66;5102338;28;20586;-65
2022/07/22 05:32:25;;;;;;;9.00;3.90;;;;;;;17.65;80.67;100737.53;5100225;28;20953;-65
2022/07/22 05:34:52;;;;;;;6.63;4.00;;;;;;;17.61;80.61;100739.75;5092337;28;20454;-64
2022/07/22 05:37:20;;;;;;;7.00;4.23;;;;;;;17.50;80.69;100737.44;5097279;28;20486;-65
2022/07/22 05:39:47;;;;;;;6.10;4.80;;;;;;;17.22;81.71;100743.25;5101154;28;20443;-65
2022/07/22 05:42:14;;;;;;;8.03;4.63;;;;;;;17.42;81.45;100738.28;5099685;28;20486;-64
2022/07/22 05:44:40;;;;;;;4.93;4.30;;;;;;;17.53;81.31;100736.22;5101567;28;20434;-65
2022/07/22 05:47:07;;;;;;;8.40;5.30;;;;;;;17.60;80.63;100746.19;5099890;28;20503;-64
2022/07/22 05:49:34;;;;;;;7.23;4.40;;;;;;;17.40;81.76;100750.31;5100810;28;20474;-64
2022/07/22 05:52:00;;;;;;;4.00;3.60;;;;;;;17.42;82.15;100742.84;5100884;28;20475;-65
2022/07/22 05:54:29;;;;;;;7.63;4.07;;;;;;;17.28;82.37;100747.94;5101133;28;20462;-64
2022/07/22 05:56:55;;;;;;;11.70;4.27;;;;;;;17.54;81.47;100746.03;5099362;28;20532;-64
2022/07/22 05:59:22;;;;;;;6.70;4.50;;;;;;;17.41;81.54;100754.66;5100829;28;20443;-65
2022/07/22 06:01:49;;;;;;;6.73;4.10;;;;;;;17.34;81.63;100754.50;5100432;28;20467;-65
2022/07/22 06:04:15;;;;;;;7.20;4.03;;;;;;;17.36;81.56;100746.25;5100916;28;20435;-65
2022/07/22 06:06:42;;;;;;;5.60;3.70;;;;;;;17.49;81.44;100760.91;5099447;28;20546;-65
2022/07/22 06:09:09;;;;;;;6.23;4.13;;;;;;;17.80;80.45;100754.72;5100604;28;20467;-65
2022/07/22 06:11:37;;;;;;;4.90;4.00;;;;;;;17.94;79.33;100749.63;5100051;28;20545;-65
2022/07/22 06:14:04;;;;;;;6.50;3.43;;;;;;;17.97;79.33;100755.53;5099923;28;20971;-65
2022/07/22 06:16:32;;;;;;;4.10;3.67;;;;;;;17.99;79.17;100761.59;5099266;28;20470;-65
2022/07/22 06:18:58;;;;;;;6.53;3.53;;;;;;;17.98;78.38;100754.47;5100591;28;20489;-65
2022/07/22 06:21:25;;;;;;;4.87;3.70;;;;;;;18.07;79.11;100755.28;5099168;28;20483;-66
2022/07/22 06:23:52;;;;;;;5.10;3.30;;;;;;;18.09;78.26;100755.09;5100511;28;20431;-66
2022/07/22 06:26:19;;;;;;;7.70;3.70;;;;;;;17.85;79.45;100763.16;5099168;28;20554;-65
2022/07/22 06:28:47;;;;;;;4.23;3.83;;;;;;;17.90;79.06;100754.53;5099258;28;20454;-65
2022/07/22 06:31:14;;;;;;;6.57;4.00;;;;;;;18.15;77.80;100773.34;5100026;28;20577;-65
2022/07/22 06:33:40;;;;;;;6.00;5.03;;;;;;;18.20;77.69;100755.56;5099432;28;20506;-65
2022/07/22 06:36:07;;;;;;;4.87;3.40;;;;;;;17.99;78.22;100768.88;5098269;28;20483;-65
2022/07/22 06:38:34;;;;;;;4.67;3.67;;;;;;;17.81;78.72;100764.53;5100104;28;20439;-65
2022/07/22 06:41:01;;;;;;;6.67;4.03;;;;;;;17.76;79.22;100764.22;5099485;28;20494;-65
2022/07/22 06:43:28;;;;;;;4.00;3.60;;;;;;;18.08;78.21;100773.22;5099766;28;20447;-65
2022/07/22 06:45:56;;;;;;;6.10;3.70;;;;;;;18.10;77.69;100771.16;5098795;28;20538;-65
2022/07/22 06:48:23;;;;;;;3.60;3.00;;;;;;;18.22;77.47;100774.31;5099281;28;20510;-66
2022/07/22 06:50:50;;;;;;;7.10;3.40;;;;;;;17.97;78.13;100782.56;5098925;28;20494;-65
2022/07/22 06:53:16;;;;;;;5.67;3.70;;;;;;;18.11;77.91;100782.84;5100129;28;20436;-65
2022/07/22 06:55:43;;;;;;;3.60;2.80;;;;;;;18.21;77.56;100768.09;5098796;28;20542;-65
2022/07/22 06:58:10;;;;;;;4.93;3.63;;;;;;;18.20;77.85;100774.50;5098861;28;20447;-65
2022/07/22 07:00:36;;;;;;;4.27;3.13;;;;;;;18.27;78.19;100774.63;5099612;28;20495;-65
2022/07/22 07:03:04;;;;;;;3.97;2.70;;;;;;;18.32;77.86;100771.41;5099604;28;20451;-65
2022/07/22 07:05:31;;;;;;;3.70;2.33;;;;;;;18.27;78.07;100780.06;5098533;28;20562;-65
2022/07/22 07:07:58;;;;;;;3.40;2.77;;;;;;;18.12;78.65;100768.28;5099174;28;20487;-65
2022/07/22 07:10:24;;;;;;;4.40;3.20;;;;;;;18.01;79.15;100775.78;5099961;28;20443;-65
2022/07/22 07:12:56;;;;;;;5.47;3.00;;;;;;;18.23;78.73;100768.75;5098195;28;20452;-65
2022/07/22 07:15:23;;;;;;;4.00;3.60;;;;;;;18.46;77.45;100767.09;5099145;28;20439;-65
2022/07/22 07:17:49;;;;;;;6.00;3.07;;;;;;;18.70;77.34;100768.78;5098801;28;20423;-65
2022/07/22 07:20:17;;;;;;;8.47;4.13;;;;;;;17.72;75.18;100770.13;5098680;28;20450;-65
2022/07/22 07:22:44;;;;;;;10.40;3.60;;;;;;;17.80;76.57;100773.66;5099952;28;20450;-64
2022/07/22 07:25:11;;;;;;;9.50;4.37;;;;;;;17.84;75.60;100771.44;5099095;28;20423;-65
2022/07/22 07:27:38;;;;;;;7.00;3.70;;;;;;;17.84;75.20;100771.44;5098254;28;20535;-65
2022/07/22 07:30:06;;;;;;;10.90;4.60;;;;;;;17.93;75.71;100767.69;5099697;28;20424;-65
2022/07/22 07:32:32;;;;;;;9.40;4.30;;;;;;;17.92;76.44;100760.63;5098677;28;20497;-65
2022/07/22 07:34:59;;;;;;;7.53;4.80;;;;;;;18.17;76.55;100763.19;5098513;28;20442;-64
2022/07/22 07:37:27;;;;;;;13.87;5.23;;;;;;;18.06;76.43;100761.72;5098141;28;20527;-65
2022/07/22 07:39:54;;;;;;;7.87;4.70;;;;;;;18.03;77.53;100762.91;5099211;28;21036;-65
2022/07/22 07:42:20;;;;;;;12.13;4.40;;;;;;;18.08;75.86;100764.25;5097741;28;21342;-65
2022/07/22 07:44:47;;;;;;;11.37;3.90;;;;;;;18.32;74.50;100761.41;5099535;28;20454;-65
2022/07/22 07:47:17;;;;;;;8.17;3.87;;;;;;;19.16;73.13;100761.44;5097912;28;20487;-65
2022/07/22 07:49:44;;;;;;;8.57;4.17;;;;;;;19.23;72.56;100755.28;5098687;28;20455;-65
2022/07/22 07:52:12;;;;;;;9.43;4.20;;;;;;;19.47;71.64;100762.31;5098620;28;20475;-65
2022/07/22 07:54:40;;;;;;;8.47;4.07;;;;;;;19.05;70.93;100761.88;5099310;28;20435;-65
2022/07/22 07:57:07;;;;;;;12.37;5.07;;;;;;;18.84;72.84;100776.13;5098847;28;20534;-65
2022/07/22 07:59:40;;;;;;;7.00;4.23;;;;;;;19.40;70.80;100772.22;5103143;28;21042;-65
2022/07/22 08:02:07;;;;;;;9.03;4.67;;;;;;;18.65;73.71;100765.78;5102389;28;20473;-65
2022/07/22 08:04:35;;;;;;;9.53;4.40;;;;;;;18.87;72.84;100755.94;5102856;28;20435;-64
2022/07/22 08:07:02;;;;;;;8.20;3.57;;;;;;;18.30;73.75;100758.03;5102185;28;20483;-65
2022/07/22 08:09:29;;;;;;;6.80;3.30;;;;;;;18.57;75.12;100758.53;5103315;28;20845;-65
2022/07/22 08:11:57;;;;;;;6.63;4.20;;;;;;;18.83;74.22;100760.06;5101685;28;20471;-64
2022/07/22 08:14:24;;;;;;;8.03;4.30;;;;;;;18.09;76.64;100760.53;5102564;28;20956;-64
2022/07/22 08:16:51;;;;;;;8.97;4.80;;;;;;;18.14;76.33;100768.94;5096907;27;20524;-65
2022/07/22 08:19:17;;;;;;;8.17;4.57;;;;;;;18.52;75.45;100760.94;5101348;28;20454;-64
2022/07/22 08:21:44;;;;;;;7.67;5.07;;;;;;;18.90;74.72;100759.13;5103164;28;20533;-65
2022/07/22 08:24:11;;;;;;;9.60;5.10;;;;;;;19.36;73.82;100756.31;5103688;28;20457;-64
2022/07/22 08:26:38;;;;;;;13.13;5.27;;;;;;;19.44;71.82;100760.81;5102784;28;20490;-65
2022/07/22 08:29:07;;;;;;;8.30;4.30;;;;;;;19.28;70.06;100761.00;5102702;28;20486;-65
2022/07/22 08:31:34;;;;;;;9.40;5.00;;;;;;;18.99;72.05;100754.47;5102697;28;20459;-64
2022/07/22 08:34:01;;;;;;;9.17;5.13;;;;;;;18.99;71.16;100755.34;5102209;28;20454;-64
2022/07/22 08:36:28;;;;;;;15.80;5.70;;;;;;;19.67;70.80;100763.44;5102772;28;20505;-65
2022/07/22 08:38:55;;;;;;;6.73;4.50;;;;;;;19.77;69.54;100763.16;5103399;28;20851;-65
2022/07/22 08:41:24;;;;;;;6.60;4.17;;;;;;;19.63;69.55;100756.69;5101959;28;20467;-65
2022/07/22 08:43:52;;;;;;;6.00;4.10;;;;;;;19.63;68.30;100764.00;5102879;28;20474;-65
2022/07/22 08:46:20;;;;;;;4.80;3.80;;;;;;;19.61;67.52;100763.34;5101828;28;20513;-65
2022/07/22 08:48:47;;;;;;;5.60;3.63;;;;;;;19.81;66.87;100756.34;5101432;28;20510;-65
2022/07/22 08:51:14;;;;;;;4.83;3.33;;;;;;;20.09;66.01;100752.94;5101878;28;20487;-64
2022/07/22 08:53:41;;;;;;;4.57;3.33;;;;;;;20.23;65.94;100762.06;5103334;28;20738;-65
2022/07/22 08:56:08;;;;;;;7.73;3.50;;;;;;;20.17;65.51;100754.69;5101429;27;20915;-65
2022/07/22 08:58:35;;;;;;;7.00;3.43;;;;;;;20.69;63.95;100765.31;5102375;28;20455;-65
2022/07/22 09:01:06;;;;;;;6.97;3.20;;;;;;;20.85;63.54;100763.38;5102678;27;20475;-65
2022/07/22 09:03:35;;;;;;;4.90;3.27;;;;;;;20.86;63.09;100759.59;5102512;28;20408;-65
2022/07/22 09:06:01;;;;;;;8.93;3.23;;;;;;;20.82;63.63;100759.16;5102557;27;20567;-65
2022/07/22 09:08:28;;;;;;;7.90;3.13;;;;;;;20.84;62.25;100754.34;5102145;28;20516;-65
2022/07/22 09:11:00;;;;;;;10.23;4.10;;;;;;;20.07;64.30;100758.56;5101398;27;20546;-65
2022/07/22 09:13:27;;;;;;;10.17;3.17;;;;;;;20.04;65.06;100753.50;5102641;28;20508;-65
2022/07/22 09:15:55;;;;;;;7.73;3.60;;;;;;;19.96;66.59;100747.34;5101662;27;20459;-65
2022/07/22 09:18:22;;;;;;;8.87;4.10;;;;;;;19.80;68.26;100756.53;5101262;28;20506;-65
2022/07/22 09:20:59;;;;;;;7.20;3.80;;;;;;;20.20;67.22;100757.03;5101766;28;20474;-65
2022/07/22 09:23:25;;;;;;;8.23;4.50;;;;;;;20.26;64.51;100759.81;5100951;28;20464;-65
2022/07/22 09:25:52;;;;;;;6.77;3.50;;;;;;;20.80;62.67;100765.81;5101337;28;20474;-65
2022/07/22 09:28:21;;;;;;;4.17;3.33;;;;;;;21.11;62.20;100761.88;5101971;28;20514;-65
2022/07/22 09:30:49;;;;;;;6.60;3.67;;;;;;;20.91;62.21;100765.28;5101537;28;20463;-65
2022/07/22 09:33:16;;;;;;;6.47;3.73;;;;;;;21.21;61.72;100768.66;5099971;28;20463;-65
2022/07/22 09:35:45;;;;;;;4.70;3.70;;;;;;;21.52;60.62;100763.88;5100375;28;20470;-65
2022/07/22 09:38:15;;;;;;;8.90;3.60;;;;;;;21.30;60.24;100769.38;5101346;28;20435;-65
2022/07/22 09:40:43;;;;;;;6.77;3.60;;;;;;;20.83;63.24;100766.28;5100240;28;20958;-65
2022/07/22 09:43:12;;;;;;;5.97;3.60;;;;;;;20.97;61.72;100766.38;5100419;28;20462;-65
2022/07/22 09:45:47;;;;;;;5.50;4.03;;;;;;;20.71;63.02;100776.00;5100730;28;20495;-65
2022/07/22 09:48:14;;;;;;;6.67;4.20;;;;;;;20.32;63.21;100769.06;5099985;28;20479;-65
2022/07/22 09:50:41;;;;;;;5.50;3.73;;;;;;;20.34;63.55;100772.41;5100595;28;20527;-65
2022/07/22 09:53:07;;;;;;;14.40;5.10;;;;;;;20.29;64.71;100772.16;5098277;28;20517;-65
2022/07/22 09:55:38;;;;;;;6.43;4.27;;;;;;;20.25;64.94;100774.41;5100327;28;20463;-65
2022/07/22 09:58:05;;;;;;;5.43;3.90;;;;;;;20.80;63.21;100777.53;5101141;28;20468;-65
2022/07/22 10:00:32;;;;;;;4.83;3.80;;;;;;;21.18;61.37;100779.94;5101047;28;20497;-65
2022/07/22 10:03:01;;;;;;;5.83;3.50;;;;;;;21.30;59.96;100777.53;5101079;28;20451;-65
2022/07/22 10:05:29;;;;;;;9.60;4.20;;;;;;;21.55;59.63;100772.47;5101194;28;20479;-65
2022/07/22 10:07:56;;;;;;;7.77;3.80;;;;;;;21.73;57.70;100771.94;5101263;28;20518;-66
2022/07/22 10:10:26;;;;;;;4.63;3.83;;;;;;;21.44;59.39;100767.56;5100619;28;20431;-65
2022/07/22 10:12:56;;;;;;;7.83;3.90;;;;;;;21.38;58.85;100766.47;5101275;28;20471;-66
2022/07/22 10:15:23;;;;;;;7.57;3.90;;;;;;;21.30;58.31;100761.19;5099835;28;20880;-65
2022/07/22 10:17:51;;;;;;;5.97;3.53;;;;;;;21.80;56.96;100770.09;5101077;28;20488;-65
2022/07/22 10:20:21;;;;;;;5.63;3.50;;;;;;;21.52;58.27;100763.88;5101265;28;20474;-65
2022/07/22 10:22:50;;;;;;;7.20;3.87;;;;;;;20.96;58.28;100764.69;5100941;28;20490;-65
2022/07/22 10:25:19;;;;;;;6.10;4.10;;;;;;;20.84;59.38;100754.34;5100637;28;20793;-66
2022/07/22 10:27:47;;;;;;;6.03;3.70;;;;;;;20.83;60.79;100766.28;5100980;28;20483;-66
2022/07/22 10:30:18;;;;;;;4.43;3.90;;;;;;;20.81;60.83;100760.16;5099764;28;20504;-66
2022/07/22 10:32:44;;;;;;;5.93;3.80;;;;;;;21.03;60.76;100774.56;5096257;28;20484;-66
2022/07/22 10:35:24;;;;;;;8.67;3.83;;;;;;;20.53;61.82;100772.84;5100866;28;20432;-66
2022/07/22 10:37:57;;;;;;;6.20;3.40;;;;;;;20.34;61.06;100767.00;5101163;28;20494;-66
2022/07/22 10:40:25;;;;;;;7.50;3.83;;;;;;;20.55;61.21;100768.88;5099398;28;20447;-66
2022/07/22 10:43:07;;;;;;;5.90;3.70;;;;;;;20.64;60.38;100773.19;5100238;28;20538;-66
2022/07/22 10:45:37;;;;;;;6.97;3.70;;;;;;;20.47;60.22;100766.31;5100241;28;20581;-65
2022/07/22 10:48:07;;;;;;;5.03;3.80;;;;;;;20.56;59.62;100773.28;5099783;28;20475;-65
2022/07/22 10:50:49;;;;;;;5.97;3.40;;;;;;;20.84;59.21;100769.81;5100654;28;20869;-65
2022/07/22 10:53:18;;;;;;;4.50;3.10;;;;;;;20.82;60.15;100772.72;5100141;28;20865;-65
2022/07/22 10:55:59;;;;;;;7.37;3.83;;;;;;;20.39;60.52;100764.53;5099748;27;20486;-65
2022/07/22 10:58:57;;;;;;;7.97;4.00;;;;;;;20.39;61.53;100761.00;5101163;28;20443;-65
2022/07/22 11:01:28;;;;;;;4.77;3.67;;;;;;;20.50;60.07;100760.47;5100027;27;20495;-65
2022/07/22 11:03:56;;;;;;;4.83;3.40;;;;;;;20.58;59.15;100760.34;5100480;28;20514;-65
2022/07/22 11:06:28;;;;;;;4.50;3.63;;;;;;;20.52;60.55;100763.84;5099969;27;20496;-65
2022/07/22 11:08:57;;;;;;;7.90;3.10;;;;;;;20.48;60.17;100762.53;5099494;28;20495;-65
2022/07/22 11:11:41;;;;;;;8.27;3.20;;;;;;;20.54;59.66;100764.50;5099335;27;20849;-66
2022/07/22 11:14:26;;;;;;;10.40;4.07;;;;;;;20.06;61.46;100770.44;5099183;28;20841;-65
2022/07/22 11:16:56;;;;;;;5.30;3.53;;;;;;;20.42;60.91;100763.34;5098483;27;20843;-65
2022/07/22 11:19:24;;;;;;;7.70;3.30;;;;;;;20.57;60.37;100766.84;5099953;28;20524;-66
2022/07/22 11:21:52;;;;;;;8.37;4.07;;;;;;;20.53;60.87;100764.69;5099490;27;20883;-66
2022/07/22 11:24:19;;;;;;;4.73;3.70;;;;;;;20.46;61.42;100765.44;5099906;28;20439;-66
2022/07/22 11:26:48;;;;;;;6.60;4.30;;;;;;;20.05;61.31;100763.34;5099286;27;20565;-65